sensor_id;sensor_type;location;lat;lon;timestamp;P1;durP1;ratioP1;P2;durP2;ratioP2
43552;SDS011;29153;42.696;23.218;2023-03-01T00:00:07;7.97;;;3.22;;
43552;SDS011;29153;42.696;23.218;2023-03-01T00:02:35;7.25;;;3.30;;
43552;SDS011;29153;42.696;23.218;2023-03-01T00:05:03;10.05;;;3.95;;
43552;SDS011;29153;42.696;23.218;2023-03-01T00:07:32;9.28;;;3.98;;
43552;SDS011;29153;42.696;23.218;2023-03-01T00:10:00;7.40;;;3.17;;
43552;SDS011;29153;42.696;23.218;2023-03-01T00:12:27;8.35;;;3.50;;
43552;SDS011;29153;42.696;23.218;2023-03-01T00:14:55;9.88;;;3.77;;
43552;SDS011;29153;42.696;23.218;2023-03-01T00:17:22;7.40;;;3.25;;
43552;SDS011;29153;42.696;23.218;2023-03-01T00:19:50;9.93;;;3.70;;
43552;SDS011;29153;42.696;23.218;2023-03-01T00:22:17;8.90;;;3.95;;
43552;SDS011;29153;42.696;23.218;2023-03-01T00:24:46;13.62;;;6.20;;
43552;SDS011;29153;42.696;23.218;2023-03-01T00:27:13;21.75;;;12.47;;
43552;SDS011;29153;42.696;23.218;2023-03-01T00:29:40;31.23;;;16.80;;
43552;SDS011;29153;42.696;23.218;2023-03-01T00:32:08;34.75;;;18.87;;
43552;SDS011;29153;42.696;23.218;2023-03-01T00:34:35;37.70;;;20.88;;
43552;SDS011;29153;42.696;23.218;2023-03-01T00:37:03;34.35;;;20.60;;
43552;SDS011;29153;42.696;23.218;2023-03-01T00:39:31;25.85;;;14.40;;
43552;SDS011;29153;42.696;23.218;2023-03-01T00:41:59;19.90;;;11.15;;
43552;SDS011;29153;42.696;23.218;2023-03-01T00:44:26;13.03;;;6.78;;
43552;SDS011;29153;42.696;23.218;2023-03-01T00:46:54;12.35;;;7.45;;
43552;SDS011;29153;42.696;23.218;2023-03-01T00:49:22;10.95;;;6.05;;
43552;SDS011;29153;42.696;23.218;2023-03-01T00:51:51;11.75;;;5.85;;
43552;SDS011;29153;42.696;23.218;2023-03-01T00:54:18;8.48;;;4.42;;
43552;SDS011;29153;42.696;23.218;2023-03-01T00:56:46;8.10;;;4.30;;
43552;SDS011;29153;42.696;23.218;2023-03-01T00:59:13;7.47;;;4.00;;
43552;SDS011;29153;42.696;23.218;2023-03-01T01:01:41;6.50;;;3.05;;
43552;SDS011;29153;42.696;23.218;2023-03-01T01:04:10;6.22;;;2.62;;
43552;SDS011;29153;42.696;23.218;2023-03-01T01:06:42;6.08;;;3.05;;
43552;SDS011;29153;42.696;23.218;2023-03-01T01:09:15;15.05;;;6.62;;
43552;SDS011;29153;42.696;23.218;2023-03-01T01:11:44;5.80;;;2.08;;
43552;SDS011;29153;42.696;23.218;2023-03-01T01:14:13;6.70;;;3.02;;
43552;SDS011;29153;42.696;23.218;2023-03-01T01:16:41;4.80;;;2.30;;
43552;SDS011;29153;42.696;23.218;2023-03-01T01:19:10;5.75;;;2.75;;
43552;SDS011;29153;42.696;23.218;2023-03-01T01:21:38;3.70;;;1.90;;
43552;SDS011;29153;42.696;23.218;2023-03-01T01:24:08;5.25;;;2.40;;
43552;SDS011;29153;42.696;23.218;2023-03-01T01:26:36;5.40;;;2.45;;
43552;SDS011;29153;42.696;23.218;2023-03-01T01:29:04;6.37;;;2.40;;
43552;SDS011;29153;42.696;23.218;2023-03-01T01:31:33;4.47;;;2.30;;
43552;SDS011;29153;42.696;23.218;2023-03-01T01:34:02;4.67;;;2.00;;
43552;SDS011;29153;42.696;23.218;2023-03-01T01:36:31;3.85;;;1.60;;
43552;SDS011;29153;42.696;23.218;2023-03-01T01:39:01;4.17;;;1.77;;
43552;SDS011;29153;42.696;23.218;2023-03-01T01:41:29;4.05;;;1.77;;
43552;SDS011;29153;42.696;23.218;2023-03-01T01:46:47;4.80;;;2.02;;
43552;SDS011;29153;42.696;23.218;2023-03-01T01:49:18;4.53;;;2.08;;
43552;SDS011;29153;42.696;23.218;2023-03-01T01:51:47;3.52;;;1.47;;
43552;SDS011;29153;42.696;23.218;2023-03-01T01:54:23;13.10;;;2.20;;
43552;SDS011;29153;42.696;23.218;2023-03-01T01:56:58;4.53;;;1.87;;
43552;SDS011;29153;42.696;23.218;2023-03-01T01:59:26;6.87;;;1.67;;
43552;SDS011;29153;42.696;23.218;2023-03-01T02:01:57;3.92;;;1.62;;
43552;SDS011;29153;42.696;23.218;2023-03-01T02:04:27;4.53;;;2.00;;
43552;SDS011;29153;42.696;23.218;2023-03-01T02:07:07;3.98;;;1.80;;
43552;SDS011;29153;42.696;23.218;2023-03-01T02:09:35;5.12;;;1.75;;
43552;SDS011;29153;42.696;23.218;2023-03-01T02:12:03;4.35;;;1.70;;
43552;SDS011;29153;42.696;23.218;2023-03-01T02:14:33;3.77;;;1.82;;
43552;SDS011;29153;42.696;23.218;2023-03-01T02:17:01;3.17;;;1.50;;
43552;SDS011;29153;42.696;23.218;2023-03-01T02:22:24;3.62;;;1.32;;
43552;SDS011;29153;42.696;23.218;2023-03-01T02:28:08;4.92;;;1.60;;
43552;SDS011;29153;42.696;23.218;2023-03-01T02:30:42;4.40;;;1.37;;
43552;SDS011;29153;42.696;23.218;2023-03-01T02:33:29;5.55;;;1.80;;
43552;SDS011;29153;42.696;23.218;2023-03-01T02:36:00;5.25;;;1.75;;
43552;SDS011;29153;42.696;23.218;2023-03-01T02:38:39;2.80;;;1.45;;
43552;SDS011;29153;42.696;23.218;2023-03-01T02:41:08;4.08;;;1.70;;
43552;SDS011;29153;42.696;23.218;2023-03-01T02:43:38;5.22;;;2.40;;
43552;SDS011;29153;42.696;23.218;2023-03-01T02:46:13;3.45;;;1.75;;
43552;SDS011;29153;42.696;23.218;2023-03-01T02:48:40;3.67;;;1.40;;
43552;SDS011;29153;42.696;23.218;2023-03-01T02:51:22;3.17;;;1.50;;
43552;SDS011;29153;42.696;23.218;2023-03-01T02:54:05;3.90;;;1.42;;
43552;SDS011;29153;42.696;23.218;2023-03-01T02:56:43;2.37;;;1.10;;
43552;SDS011;29153;42.696;23.218;2023-03-01T02:59:13;3.08;;;1.52;;
43552;SDS011;29153;42.696;23.218;2023-03-01T03:01:43;3.45;;;2.25;;
43552;SDS011;29153;42.696;23.218;2023-03-01T03:04:11;3.90;;;1.85;;
43552;SDS011;29153;42.696;23.218;2023-03-01T03:06:44;4.72;;;2.35;;
43552;SDS011;29153;42.696;23.218;2023-03-01T03:09:12;4.15;;;1.70;;
43552;SDS011;29153;42.696;23.218;2023-03-01T03:11:40;4.20;;;2.10;;
43552;SDS011;29153;42.696;23.218;2023-03-01T03:14:10;4.12;;;1.85;;
43552;SDS011;29153;42.696;23.218;2023-03-01T03:16:46;3.58;;;1.87;;
43552;SDS011;29153;42.696;23.218;2023-03-01T03:19:17;4.35;;;2.08;;
43552;SDS011;29153;42.696;23.218;2023-03-01T03:21:45;4.65;;;2.27;;
43552;SDS011;29153;42.696;23.218;2023-03-01T03:24:13;4.40;;;2.00;;
43552;SDS011;29153;42.696;23.218;2023-03-01T03:26:40;6.40;;;2.40;;
43552;SDS011;29153;42.696;23.218;2023-03-01T03:29:08;6.83;;;3.02;;
43552;SDS011;29153;42.696;23.218;2023-03-01T03:31:35;4.58;;;2.40;;
43552;SDS011;29153;42.696;23.218;2023-03-01T03:34:03;5.80;;;3.22;;
43552;SDS011;29153;42.696;23.218;2023-03-01T03:36:30;7.05;;;2.83;;
43552;SDS011;29153;42.696;23.218;2023-03-01T03:38:57;4.80;;;2.25;;
43552;SDS011;29153;42.696;23.218;2023-03-01T03:41:25;5.00;;;2.87;;
43552;SDS011;29153;42.696;23.218;2023-03-01T03:43:52;5.17;;;2.70;;
43552;SDS011;29153;42.696;23.218;2023-03-01T03:46:37;6.42;;;2.83;;
43552;SDS011;29153;42.696;23.218;2023-03-01T03:49:05;6.22;;;2.87;;
43552;SDS011;29153;42.696;23.218;2023-03-01T03:51:32;6.70;;;2.98;;
43552;SDS011;29153;42.696;23.218;2023-03-01T03:54:00;5.62;;;2.65;;
43552;SDS011;29153;42.696;23.218;2023-03-01T03:56:27;6.10;;;2.98;;
43552;SDS011;29153;42.696;23.218;2023-03-01T03:59:13;5.85;;;2.62;;
43552;SDS011;29153;42.696;23.218;2023-03-01T04:01:40;4.35;;;2.10;;
43552;SDS011;29153;42.696;23.218;2023-03-01T04:04:10;5.67;;;2.12;;
43552;SDS011;29153;42.696;23.218;2023-03-01T04:06:37;4.50;;;2.05;;
43552;SDS011;29153;42.696;23.218;2023-03-01T04:09:05;4.03;;;1.57;;
43552;SDS011;29153;42.696;23.218;2023-03-01T04:11:32;4.22;;;2.15;;
43552;SDS011;29153;42.696;23.218;2023-03-01T04:14:00;4.80;;;2.10;;
43552;SDS011;29153;42.696;23.218;2023-03-01T04:16:29;5.75;;;1.80;;
43552;SDS011;29153;42.696;23.218;2023-03-01T04:18:57;5.62;;;2.22;;
43552;SDS011;29153;42.696;23.218;2023-03-01T04:21:26;4.85;;;2.22;;
43552;SDS011;29153;42.696;23.218;2023-03-01T04:23:53;6.05;;;2.75;;
43552;SDS011;29153;42.696;23.218;2023-03-01T04:26:20;4.78;;;2.25;;
43552;SDS011;29153;42.696;23.218;2023-03-01T04:28:48;5.45;;;2.10;;
43552;SDS011;29153;42.696;23.218;2023-03-01T04:31:17;4.40;;;1.82;;
43552;SDS011;29153;42.696;23.218;2023-03-01T04:33:53;5.05;;;2.08;;
43552;SDS011;29153;42.696;23.218;2023-03-01T04:36:23;4.55;;;1.90;;
43552;SDS011;29153;42.696;23.218;2023-03-01T04:38:52;5.53;;;2.25;;
43552;SDS011;29153;42.696;23.218;2023-03-01T04:41:21;4.17;;;2.00;;
43552;SDS011;29153;42.696;23.218;2023-03-01T04:43:50;3.72;;;1.47;;
43552;SDS011;29153;42.696;23.218;2023-03-01T04:46:19;3.35;;;1.55;;
43552;SDS011;29153;42.696;23.218;2023-03-01T04:48:47;6.45;;;1.98;;
43552;SDS011;29153;42.696;23.218;2023-03-01T04:51:15;5.35;;;2.22;;
43552;SDS011;29153;42.696;23.218;2023-03-01T04:53:44;6.00;;;2.90;;
43552;SDS011;29153;42.696;23.218;2023-03-01T04:56:12;4.55;;;2.45;;
43552;SDS011;29153;42.696;23.218;2023-03-01T04:58:40;4.42;;;2.30;;
43552;SDS011;29153;42.696;23.218;2023-03-01T05:01:11;9.13;;;4.80;;
43552;SDS011;29153;42.696;23.218;2023-03-01T05:03:44;14.23;;;5.45;;
43552;SDS011;29153;42.696;23.218;2023-03-01T05:06:14;10.78;;;4.30;;
43552;SDS011;29153;42.696;23.218;2023-03-01T05:08:43;9.58;;;4.03;;
43552;SDS011;29153;42.696;23.218;2023-03-01T05:11:11;9.20;;;3.55;;
43552;SDS011;29153;42.696;23.218;2023-03-01T05:13:39;10.88;;;4.85;;
43552;SDS011;29153;42.696;23.218;2023-03-01T05:16:07;9.38;;;4.17;;
43552;SDS011;29153;42.696;23.218;2023-03-01T05:18:38;8.40;;;3.50;;
43552;SDS011;29153;42.696;23.218;2023-03-01T05:21:14;5.80;;;2.98;;
43552;SDS011;29153;42.696;23.218;2023-03-01T05:23:41;18.07;;;9.85;;
43552;SDS011;29153;42.696;23.218;2023-03-01T05:26:10;10.38;;;5.05;;
43552;SDS011;29153;42.696;23.218;2023-03-01T05:28:38;9.40;;;4.42;;
43552;SDS011;29153;42.696;23.218;2023-03-01T05:31:05;8.80;;;4.08;;
43552;SDS011;29153;42.696;23.218;2023-03-01T05:33:35;5.50;;;2.62;;
43552;SDS011;29153;42.696;23.218;2023-03-01T05:38:31;9.15;;;3.52;;
43552;SDS011;29153;42.696;23.218;2023-03-01T05:40:58;10.08;;;4.40;;
43552;SDS011;29153;42.696;23.218;2023-03-01T05:43:26;18.70;;;7.95;;
43552;SDS011;29153;42.696;23.218;2023-03-01T05:45:55;17.37;;;7.78;;
43552;SDS011;29153;42.696;23.218;2023-03-01T05:48:24;8.45;;;3.85;;
43552;SDS011;29153;42.696;23.218;2023-03-01T05:50:51;8.48;;;3.70;;
43552;SDS011;29153;42.696;23.218;2023-03-01T05:53:19;7.05;;;3.17;;
43552;SDS011;29153;42.696;23.218;2023-03-01T05:55:47;10.08;;;4.40;;
43552;SDS011;29153;42.696;23.218;2023-03-01T05:58:17;8.63;;;4.20;;
43552;SDS011;29153;42.696;23.218;2023-03-01T06:00:46;7.92;;;3.45;;
43552;SDS011;29153;42.696;23.218;2023-03-01T06:03:16;5.40;;;2.70;;
43552;SDS011;29153;42.696;23.218;2023-03-01T06:05:44;6.83;;;3.12;;
43552;SDS011;29153;42.696;23.218;2023-03-01T06:08:12;9.30;;;3.95;;
43552;SDS011;29153;42.696;23.218;2023-03-01T06:10:40;7.50;;;3.47;;
43552;SDS011;29153;42.696;23.218;2023-03-01T06:13:07;7.42;;;3.77;;
43552;SDS011;29153;42.696;23.218;2023-03-01T06:15:35;10.13;;;4.58;;
43552;SDS011;29153;42.696;23.218;2023-03-01T06:18:02;9.78;;;4.10;;
43552;SDS011;29153;42.696;23.218;2023-03-01T06:20:30;10.03;;;3.92;;
43552;SDS011;29153;42.696;23.218;2023-03-01T06:22:57;12.10;;;4.40;;
43552;SDS011;29153;42.696;23.218;2023-03-01T06:25:26;8.00;;;3.85;;
43552;SDS011;29153;42.696;23.218;2023-03-01T06:27:53;9.55;;;4.30;;
43552;SDS011;29153;42.696;23.218;2023-03-01T06:30:22;7.12;;;3.22;;
43552;SDS011;29153;42.696;23.218;2023-03-01T06:32:50;6.30;;;2.75;;
43552;SDS011;29153;42.696;23.218;2023-03-01T06:35:18;7.85;;;2.85;;
43552;SDS011;29153;42.696;23.218;2023-03-01T06:37:46;7.10;;;2.70;;
43552;SDS011;29153;42.696;23.218;2023-03-01T06:40:14;6.97;;;2.87;;
43552;SDS011;29153;42.696;23.218;2023-03-01T06:42:43;8.45;;;3.35;;
43552;SDS011;29153;42.696;23.218;2023-03-01T06:45:12;5.75;;;2.83;;
43552;SDS011;29153;42.696;23.218;2023-03-01T06:47:39;6.58;;;3.33;;
43552;SDS011;29153;42.696;23.218;2023-03-01T06:50:07;9.10;;;3.67;;
43552;SDS011;29153;42.696;23.218;2023-03-01T06:52:35;7.17;;;3.10;;
43552;SDS011;29153;42.696;23.218;2023-03-01T06:55:04;11.28;;;4.17;;
43552;SDS011;29153;42.696;23.218;2023-03-01T06:57:32;8.28;;;3.77;;
43552;SDS011;29153;42.696;23.218;2023-03-01T07:00:00;8.35;;;4.20;;
43552;SDS011;29153;42.696;23.218;2023-03-01T07:02:27;8.13;;;3.10;;
43552;SDS011;29153;42.696;23.218;2023-03-01T07:04:55;6.83;;;3.60;;
43552;SDS011;29153;42.696;23.218;2023-03-01T07:07:22;6.37;;;3.08;;
43552;SDS011;29153;42.696;23.218;2023-03-01T07:09:50;6.22;;;2.62;;
43552;SDS011;29153;42.696;23.218;2023-03-01T07:12:18;8.78;;;3.85;;
43552;SDS011;29153;42.696;23.218;2023-03-01T07:14:46;9.70;;;3.08;;
43552;SDS011;29153;42.696;23.218;2023-03-01T07:17:13;7.70;;;2.83;;
43552;SDS011;29153;42.696;23.218;2023-03-01T07:19:40;9.95;;;3.55;;
43552;SDS011;29153;42.696;23.218;2023-03-01T07:22:08;7.50;;;3.27;;
43552;SDS011;29153;42.696;23.218;2023-03-01T07:24:35;8.33;;;3.00;;
43552;SDS011;29153;42.696;23.218;2023-03-01T07:27:03;7.62;;;3.15;;
43552;SDS011;29153;42.696;23.218;2023-03-01T07:29:36;7.20;;;2.80;;
43552;SDS011;29153;42.696;23.218;2023-03-01T07:32:03;7.37;;;3.20;;
43552;SDS011;29153;42.696;23.218;2023-03-01T07:34:31;9.63;;;3.22;;
43552;SDS011;29153;42.696;23.218;2023-03-01T07:36:59;10.00;;;4.90;;
43552;SDS011;29153;42.696;23.218;2023-03-01T07:39:29;15.18;;;7.05;;
43552;SDS011;29153;42.696;23.218;2023-03-01T07:42:00;11.75;;;6.22;;
43552;SDS011;29153;42.696;23.218;2023-03-01T07:44:27;8.95;;;3.08;;
43552;SDS011;29153;42.696;23.218;2023-03-01T07:46:55;9.10;;;3.58;;
43552;SDS011;29153;42.696;23.218;2023-03-01T07:51:54;11.05;;;3.33;;
43552;SDS011;29153;42.696;23.218;2023-03-01T07:54:24;7.15;;;3.60;;
43552;SDS011;29153;42.696;23.218;2023-03-01T07:56:52;8.03;;;2.75;;
43552;SDS011;29153;42.696;23.218;2023-03-01T07:59:20;6.17;;;2.92;;
43552;SDS011;29153;42.696;23.218;2023-03-01T08:01:49;7.20;;;2.70;;
43552;SDS011;29153;42.696;23.218;2023-03-01T08:04:17;5.30;;;2.60;;
43552;SDS011;29153;42.696;23.218;2023-03-01T08:06:44;8.95;;;2.47;;
43552;SDS011;29153;42.696;23.218;2023-03-01T08:09:13;5.12;;;2.25;;
43552;SDS011;29153;42.696;23.218;2023-03-01T08:11:43;9.05;;;3.40;;
43552;SDS011;29153;42.696;23.218;2023-03-01T08:14:14;6.60;;;2.75;;
43552;SDS011;29153;42.696;23.218;2023-03-01T08:16:47;11.40;;;4.72;;
43552;SDS011;29153;42.696;23.218;2023-03-01T08:19:14;9.38;;;5.62;;
43552;SDS011;29153;42.696;23.218;2023-03-01T08:21:41;7.47;;;4.08;;
43552;SDS011;29153;42.696;23.218;2023-03-01T08:24:09;9.45;;;4.10;;
43552;SDS011;29153;42.696;23.218;2023-03-01T08:26:36;13.20;;;6.42;;
43552;SDS011;29153;42.696;23.218;2023-03-01T08:29:05;14.98;;;6.60;;
43552;SDS011;29153;42.696;23.218;2023-03-01T08:31:34;9.03;;;4.35;;
43552;SDS011;29153;42.696;23.218;2023-03-01T08:34:06;14.70;;;4.65;;
43552;SDS011;29153;42.696;23.218;2023-03-01T08:36:37;8.85;;;4.15;;
43552;SDS011;29153;42.696;23.218;2023-03-01T08:39:07;10.68;;;4.17;;
43552;SDS011;29153;42.696;23.218;2023-03-01T08:41:36;8.88;;;3.25;;
43552;SDS011;29153;42.696;23.218;2023-03-01T08:44:05;8.05;;;3.58;;
43552;SDS011;29153;42.696;23.218;2023-03-01T08:46:37;13.65;;;4.58;;
43552;SDS011;29153;42.696;23.218;2023-03-01T08:49:10;10.53;;;4.15;;
43552;SDS011;29153;42.696;23.218;2023-03-01T08:51:34;9.70;;;4.55;;
43552;SDS011;29153;42.696;23.218;2023-03-01T08:54:05;8.98;;;5.15;;
43552;SDS011;29153;42.696;23.218;2023-03-01T08:56:35;11.90;;;5.22;;
43552;SDS011;29153;42.696;23.218;2023-03-01T08:59:03;10.80;;;5.35;;
43552;SDS011;29153;42.696;23.218;2023-03-01T09:01:31;13.90;;;5.00;;
43552;SDS011;29153;42.696;23.218;2023-03-01T09:03:58;9.38;;;5.72;;
43552;SDS011;29153;42.696;23.218;2023-03-01T09:06:26;9.55;;;5.22;;
43552;SDS011;29153;42.696;23.218;2023-03-01T09:08:53;11.35;;;5.60;;
43552;SDS011;29153;42.696;23.218;2023-03-01T09:11:21;16.30;;;8.85;;
43552;SDS011;29153;42.696;23.218;2023-03-01T09:13:48;9.60;;;5.12;;
43552;SDS011;29153;42.696;23.218;2023-03-01T09:16:17;9.63;;;6.37;;
43552;SDS011;29153;42.696;23.218;2023-03-01T09:18:48;8.50;;;6.03;;
43552;SDS011;29153;42.696;23.218;2023-03-01T09:21:16;11.88;;;5.00;;
43552;SDS011;29153;42.696;23.218;2023-03-01T09:23:46;10.63;;;5.03;;
43552;SDS011;29153;42.696;23.218;2023-03-01T09:28:45;5.47;;;2.60;;
43552;SDS011;29153;42.696;23.218;2023-03-01T09:31:13;8.58;;;4.15;;
43552;SDS011;29153;42.696;23.218;2023-03-01T09:33:41;6.62;;;3.40;;
43552;SDS011;29153;42.696;23.218;2023-03-01T09:36:13;6.00;;;2.52;;
43552;SDS011;29153;42.696;23.218;2023-03-01T09:38:42;17.70;;;7.75;;
43552;SDS011;29153;42.696;23.218;2023-03-01T09:41:17;11.50;;;5.37;;
43552;SDS011;29153;42.696;23.218;2023-03-01T09:43:46;10.68;;;5.08;;
43552;SDS011;29153;42.696;23.218;2023-03-01T09:46:20;9.95;;;5.12;;
43552;SDS011;29153;42.696;23.218;2023-03-01T09:48:55;6.22;;;2.98;;
43552;SDS011;29153;42.696;23.218;2023-03-01T09:51:27;7.85;;;3.25;;
43552;SDS011;29153;42.696;23.218;2023-03-01T09:53:56;7.37;;;2.98;;
43552;SDS011;29153;42.696;23.218;2023-03-01T09:56:32;7.45;;;3.45;;
43552;SDS011;29153;42.696;23.218;2023-03-01T10:04:42;9.48;;;4.95;;
43552;SDS011;29153;42.696;23.218;2023-03-01T10:09:51;7.72;;;3.55;;
43552;SDS011;29153;42.696;23.218;2023-03-01T10:12:23;8.58;;;4.20;;
43552;SDS011;29153;42.696;23.218;2023-03-01T10:20:26;7.72;;;3.47;;
43552;SDS011;29153;42.696;23.218;2023-03-01T10:22:58;7.65;;;3.35;;
43552;SDS011;29153;42.696;23.218;2023-03-01T10:28:23;9.13;;;3.45;;
43552;SDS011;29153;42.696;23.218;2023-03-01T10:30:45;7.37;;;3.00;;
43552;SDS011;29153;42.696;23.218;2023-03-01T10:33:17;5.72;;;2.47;;
43552;SDS011;29153;42.696;23.218;2023-03-01T10:35:49;9.95;;;3.30;;
43552;SDS011;29153;42.696;23.218;2023-03-01T10:38:17;6.10;;;2.95;;
43552;SDS011;29153;42.696;23.218;2023-03-01T10:40:53;5.75;;;2.75;;
43552;SDS011;29153;42.696;23.218;2023-03-01T10:43:40;6.80;;;3.37;;
43552;SDS011;29153;42.696;23.218;2023-03-01T10:49:16;8.58;;;3.62;;
43552;SDS011;29153;42.696;23.218;2023-03-01T10:51:48;5.50;;;2.60;;
43552;SDS011;29153;42.696;23.218;2023-03-01T10:59:31;17.85;;;6.67;;
43552;SDS011;29153;42.696;23.218;2023-03-01T11:02:12;5.45;;;2.77;;
43552;SDS011;29153;42.696;23.218;2023-03-01T11:04:31;26.65;;;9.70;;
43552;SDS011;29153;42.696;23.218;2023-03-01T11:06:59;20.57;;;6.40;;
43552;SDS011;29153;42.696;23.218;2023-03-01T11:09:32;16.82;;;6.05;;
43552;SDS011;29153;42.696;23.218;2023-03-01T11:12:13;8.48;;;3.10;;
43552;SDS011;29153;42.696;23.218;2023-03-01T11:14:37;6.80;;;3.35;;
43552;SDS011;29153;42.696;23.218;2023-03-01T11:17:13;31.87;;;11.43;;
43552;SDS011;29153;42.696;23.218;2023-03-01T11:20:01;6.75;;;2.77;;
43552;SDS011;29153;42.696;23.218;2023-03-01T11:22:46;11.78;;;5.15;;
43552;SDS011;29153;42.696;23.218;2023-03-01T11:25:15;8.05;;;4.00;;
43552;SDS011;29153;42.696;23.218;2023-03-01T11:27:46;12.03;;;4.35;;
43552;SDS011;29153;42.696;23.218;2023-03-01T11:30:20;11.25;;;5.92;;
43552;SDS011;29153;42.696;23.218;2023-03-01T11:33:08;12.60;;;5.28;;
43552;SDS011;29153;42.696;23.218;2023-03-01T11:38:29;12.03;;;5.20;;
43552;SDS011;29153;42.696;23.218;2023-03-01T11:41:23;7.08;;;3.35;;
43552;SDS011;29153;42.696;23.218;2023-03-01T11:43:59;16.70;;;7.75;;
43552;SDS011;29153;42.696;23.218;2023-03-01T11:49:09;10.08;;;3.37;;
43552;SDS011;29153;42.696;23.218;2023-03-01T11:57:05;8.48;;;4.03;;
43552;SDS011;29153;42.696;23.218;2023-03-01T11:59:45;7.20;;;2.92;;
43552;SDS011;29153;42.696;23.218;2023-03-01T12:10:40;12.10;;;5.22;;
43552;SDS011;29153;42.696;23.218;2023-03-01T12:13:23;11.30;;;5.20;;
43552;SDS011;29153;42.696;23.218;2023-03-01T12:16:01;9.73;;;3.62;;
43552;SDS011;29153;42.696;23.218;2023-03-01T12:21:27;6.90;;;3.62;;
43552;SDS011;29153;42.696;23.218;2023-03-01T12:24:28;7.25;;;3.08;;
43552;SDS011;29153;42.696;23.218;2023-03-01T12:26:58;6.50;;;2.90;;
43552;SDS011;29153;42.696;23.218;2023-03-01T12:29:25;9.38;;;4.10;;
43552;SDS011;29153;42.696;23.218;2023-03-01T12:37:46;7.00;;;3.98;;
43552;SDS011;29153;42.696;23.218;2023-03-01T12:43:13;12.45;;;4.80;;
43552;SDS011;29153;42.696;23.218;2023-03-01T12:49:04;16.80;;;4.60;;
43552;SDS011;29153;42.696;23.218;2023-03-01T12:51:34;10.13;;;4.30;;
43552;SDS011;29153;42.696;23.218;2023-03-01T12:54:11;9.73;;;3.62;;
43552;SDS011;29153;42.696;23.218;2023-03-01T12:56:40;7.58;;;2.98;;
43552;SDS011;29153;42.696;23.218;2023-03-01T12:59:15;8.60;;;3.75;;
43552;SDS011;29153;42.696;23.218;2023-03-01T13:02:04;10.15;;;5.03;;
43552;SDS011;29153;42.696;23.218;2023-03-01T13:07:14;6.60;;;3.02;;
43552;SDS011;29153;42.696;23.218;2023-03-01T13:17:54;8.15;;;4.10;;
43552;SDS011;29153;42.696;23.218;2023-03-01T13:20:46;9.98;;;4.20;;
43552;SDS011;29153;42.696;23.218;2023-03-01T13:26:14;8.73;;;3.58;;
43552;SDS011;29153;42.696;23.218;2023-03-01T13:28:44;8.63;;;3.75;;
43552;SDS011;29153;42.696;23.218;2023-03-01T13:33:50;6.03;;;3.00;;
43552;SDS011;29153;42.696;23.218;2023-03-01T13:46:59;11.90;;;4.50;;
43552;SDS011;29153;42.696;23.218;2023-03-01T13:49:45;15.90;;;8.05;;
43552;SDS011;29153;42.696;23.218;2023-03-01T13:54:59;9.25;;;4.85;;
43552;SDS011;29153;42.696;23.218;2023-03-01T13:57:34;9.90;;;4.58;;
43552;SDS011;29153;42.696;23.218;2023-03-01T13:59:59;14.15;;;6.80;;
43552;SDS011;29153;42.696;23.218;2023-03-01T14:02:27;12.75;;;4.70;;
43552;SDS011;29153;42.696;23.218;2023-03-01T14:04:58;11.63;;;5.08;;
43552;SDS011;29153;42.696;23.218;2023-03-01T14:07:26;7.72;;;3.20;;
43552;SDS011;29153;42.696;23.218;2023-03-01T14:09:57;11.22;;;4.17;;
43552;SDS011;29153;42.696;23.218;2023-03-01T14:15:26;9.20;;;4.25;;
43552;SDS011;29153;42.696;23.218;2023-03-01T14:18:16;6.10;;;3.10;;
43552;SDS011;29153;42.696;23.218;2023-03-01T14:20:54;8.75;;;4.35;;
43552;SDS011;29153;42.696;23.218;2023-03-01T14:23:22;13.95;;;5.10;;
43552;SDS011;29153;42.696;23.218;2023-03-01T14:25:53;19.70;;;10.45;;
43552;SDS011;29153;42.696;23.218;2023-03-01T14:28:23;15.13;;;4.53;;
43552;SDS011;29153;42.696;23.218;2023-03-01T14:30:54;12.80;;;6.78;;
43552;SDS011;29153;42.696;23.218;2023-03-01T14:33:24;11.45;;;4.75;;
43552;SDS011;29153;42.696;23.218;2023-03-01T14:36:04;8.43;;;4.08;;
43552;SDS011;29153;42.696;23.218;2023-03-01T14:38:41;10.60;;;3.65;;
43552;SDS011;29153;42.696;23.218;2023-03-01T14:41:18;7.47;;;3.42;;
43552;SDS011;29153;42.696;23.218;2023-03-01T14:43:50;13.48;;;4.92;;
43552;SDS011;29153;42.696;23.218;2023-03-01T14:46:25;12.00;;;4.60;;
43552;SDS011;29153;42.696;23.218;2023-03-01T14:48:56;11.57;;;5.87;;
43552;SDS011;29153;42.696;23.218;2023-03-01T14:51:25;12.30;;;6.15;;
43552;SDS011;29153;42.696;23.218;2023-03-01T14:53:52;8.90;;;4.08;;
43552;SDS011;29153;42.696;23.218;2023-03-01T14:56:20;8.50;;;4.42;;
43552;SDS011;29153;42.696;23.218;2023-03-01T14:58:52;12.18;;;4.42;;
43552;SDS011;29153;42.696;23.218;2023-03-01T15:01:20;11.15;;;5.03;;
43552;SDS011;29153;42.696;23.218;2023-03-01T15:03:48;11.30;;;5.33;;
43552;SDS011;29153;42.696;23.218;2023-03-01T15:06:18;8.93;;;4.05;;
43552;SDS011;29153;42.696;23.218;2023-03-01T15:08:50;8.65;;;4.03;;
43552;SDS011;29153;42.696;23.218;2023-03-01T15:11:23;14.45;;;5.40;;
43552;SDS011;29153;42.696;23.218;2023-03-01T15:13:56;10.60;;;5.80;;
43552;SDS011;29153;42.696;23.218;2023-03-01T15:16:25;17.82;;;6.45;;
43552;SDS011;29153;42.696;23.218;2023-03-01T15:18:58;12.63;;;6.62;;
43552;SDS011;29153;42.696;23.218;2023-03-01T15:21:32;12.75;;;5.12;;
43552;SDS011;29153;42.696;23.218;2023-03-01T15:24:04;13.48;;;5.03;;
43552;SDS011;29153;42.696;23.218;2023-03-01T15:26:37;11.57;;;6.12;;
43552;SDS011;29153;42.696;23.218;2023-03-01T15:29:15;27.45;;;13.78;;
43552;SDS011;29153;42.696;23.218;2023-03-01T15:31:42;27.02;;;12.37;;
43552;SDS011;29153;42.696;23.218;2023-03-01T15:34:10;24.60;;;11.00;;
43552;SDS011;29153;42.696;23.218;2023-03-01T15:36:49;12.45;;;5.50;;
43552;SDS011;29153;42.696;23.218;2023-03-01T15:42:10;16.50;;;8.10;;
43552;SDS011;29153;42.696;23.218;2023-03-01T15:44:35;13.03;;;6.50;;
43552;SDS011;29153;42.696;23.218;2023-03-01T15:47:08;17.30;;;8.40;;
43552;SDS011;29153;42.696;23.218;2023-03-01T15:49:51;12.07;;;5.50;;
43552;SDS011;29153;42.696;23.218;2023-03-01T15:52:22;9.75;;;4.50;;
43552;SDS011;29153;42.696;23.218;2023-03-01T15:54:52;11.68;;;5.70;;
43552;SDS011;29153;42.696;23.218;2023-03-01T15:57:20;10.35;;;5.83;;
43552;SDS011;29153;42.696;23.218;2023-03-01T15:59:47;14.28;;;6.22;;
43552;SDS011;29153;42.696;23.218;2023-03-01T16:02:15;11.50;;;4.87;;
43552;SDS011;29153;42.696;23.218;2023-03-01T16:04:42;13.45;;;6.85;;
43552;SDS011;29153;42.696;23.218;2023-03-01T16:07:10;15.85;;;7.05;;
43552;SDS011;29153;42.696;23.218;2023-03-01T16:09:37;16.25;;;7.50;;
43552;SDS011;29153;42.696;23.218;2023-03-01T16:12:05;18.73;;;8.30;;
43552;SDS011;29153;42.696;23.218;2023-03-01T16:14:34;15.38;;;6.72;;
43552;SDS011;29153;42.696;23.218;2023-03-01T16:17:02;12.88;;;4.80;;
43552;SDS011;29153;42.696;23.218;2023-03-01T16:19:29;11.65;;;5.72;;
43552;SDS011;29153;42.696;23.218;2023-03-01T16:21:58;11.40;;;5.72;;
43552;SDS011;29153;42.696;23.218;2023-03-01T16:24:25;14.95;;;5.10;;
43552;SDS011;29153;42.696;23.218;2023-03-01T16:26:53;10.63;;;5.37;;
43552;SDS011;29153;42.696;23.218;2023-03-01T16:29:21;16.05;;;6.67;;
43552;SDS011;29153;42.696;23.218;2023-03-01T16:31:51;15.58;;;7.55;;
43552;SDS011;29153;42.696;23.218;2023-03-01T16:34:22;18.65;;;7.30;;
43552;SDS011;29153;42.696;23.218;2023-03-01T16:36:49;11.78;;;6.55;;
43552;SDS011;29153;42.696;23.218;2023-03-01T16:39:22;15.85;;;5.83;;